Time;durP1;ratioP1;P1;durP2;ratioP2;P2;SDS_P1;SDS_P2;PMS_P1;PMS_P2;Temp;Humidity;BMP_temperature;BMP_pressure;BME280_temperature;BME280_humidity;BME280_pressure;Samples;Min_cycle;Max_cycle;Signal;HPM_P1;HPM_P2
2021/01/08 00:00:11;;;;;;;26.88;15.50;;;4.40;66.80;;;;;;5125213;28;20032;-79
2021/01/08 00:02:40;;;;;;;27.33;14.98;;;4.40;66.80;;;;;;5108454;28;20040;-79
2021/01/08 00:05:08;;;;;;;25.80;14.05;;;4.40;66.80;;;;;;5105080;28;20541;-78
2021/01/08 00:07:35;;;;;;;24.55;13.80;;;4.40;66.70;;;;;;5092485;28;20028;-82
2021/01/08 00:10:01;;;;;;;26.95;15.27;;;4.40;66.70;;;;;;5110521;28;20057;-82
2021/01/08 00:12:32;;;;;;;27.80;15.40;;;4.40;66.70;;;;;;5111274;28;20045;-79
2021/01/08 00:15:00;;;;;;;23.98;13.70;;;4.40;66.70;;;;;;5129373;28;20054;-79
2021/01/08 00:17:28;;;;;;;26.08;13.85;;;4.40;66.80;;;;;;5127182;28;20440;-78
2021/01/08 00:19:55;;;;;;;25.70;14.73;;;4.40;66.70;;;;;;5107236;28;20040;-79
2021/01/08 00:22:21;;;;;;;26.60;14.10;;;4.40;67.30;;;;;;5108564;28;20027;-79
2021/01/08 00:24:48;;;;;;;24.40;13.65;;;4.40;66.70;;;;;;5108408;28;20594;-80
2021/01/08 00:27:14;;;;;;;24.88;13.45;;;4.40;66.70;;;;;;5110368;28;20435;-80
2021/01/08 00:29:41;;;;;;;25.95;13.70;;;4.40;66.70;;;;;;5108236;28;20033;-79
2021/01/08 00:32:10;;;;;;;26.00;13.90;;;4.40;66.70;;;;;;5123593;28;20040;-78
2021/01/08 00:34:36;;;;;;;22.95;12.98;;;4.40;66.70;;;;;;5122720;28;20127;-79
2021/01/08 00:37:03;;;;;;;21.30;13.20;;;4.40;66.70;;;;;;5104340;28;20052;-78
2021/01/08 00:39:29;;;;;;;25.65;12.98;;;4.40;66.60;;;;;;5102820;28;20036;-78
2021/01/08 00:41:55;;;;;;;22.73;12.70;;;4.40;66.70;;;;;;5126612;28;20036;-80
2021/01/08 00:44:21;;;;;;;24.75;12.88;;;4.40;66.70;;;;;;5110793;28;20103;-80
2021/01/08 00:46:48;;;;;;;22.30;12.77;;;4.40;66.90;;;;;;5110512;28;20038;-81
2021/01/08 00:49:18;;;;;;;24.17;13.52;;;4.40;66.90;;;;;;5108556;28;20103;-80
2021/01/08 00:51:44;;;;;;;26.35;13.00;;;4.40;67.00;;;;;;5128424;28;20031;-79
2021/01/08 00:54:11;;;;;;;23.65;12.95;;;4.40;67.00;;;;;;5126643;28;20023;-78
2021/01/08 00:56:46;;;;;;;23.50;13.15;;;4.40;66.90;;;;;;5107118;28;20035;-79
2021/01/08 00:59:29;;;;;;;21.50;12.60;;;4.40;66.90;;;;;;5105055;28;20177;-78
2021/01/08 01:01:55;;;;;;;22.65;12.70;;;4.40;66.90;;;;;;5099608;28;20070;-78
2021/01/08 01:04:21;;;;;;;20.55;11.98;;;4.40;67.00;;;;;;5119642;28;20039;-78
2021/01/08 01:06:47;;;;;;;21.02;12.05;;;4.40;67.10;;;;;;5103541;28;20032;-77
2021/01/08 01:09:13;;;;;;;22.42;11.88;;;4.40;67.00;;;;;;5082984;28;20130;-76
2021/01/08 01:11:39;;;;;;;20.30;12.15;;;4.40;66.90;;;;;;5115437;28;20035;-75
2021/01/08 01:14:06;;;;;;;24.40;13.13;;;4.40;66.90;;;;;;5096346;28;20042;-77
2021/01/08 01:16:32;;;;;;;21.88;12.52;;;4.40;66.90;;;;;;5114944;28;20035;-77
2021/01/08 01:18:58;;;;;;;22.77;12.57;;;4.30;66.80;;;;;;5098664;28;20085;-76
2021/01/08 01:21:27;;;;;;;24.67;12.32;;;4.40;66.90;;;;;;5115160;28;20128;-77
2021/01/08 01:23:55;;;;;;;21.13;12.10;;;4.40;66.90;;;;;;5114425;28;20439;-77
2021/01/08 01:26:21;;;;;;;20.50;12.00;;;4.30;67.00;;;;;;5078767;28;20031;-78
2021/01/08 01:28:47;;;;;;;21.58;12.30;;;4.30;66.70;;;;;;5112862;28;20031;-77
2021/01/08 01:31:13;;;;;;;22.50;12.57;;;4.40;67.10;;;;;;5094912;28;20512;-77
2021/01/08 01:33:38;;;;;;;26.40;12.40;;;4.40;67.00;;;;;;5113472;28;20075;-75
2021/01/08 01:36:07;;;;;;;21.30;12.52;;;4.40;67.00;;;;;;5114136;28;20036;-77
2021/01/08 01:38:33;;;;;;;22.25;12.45;;;4.30;66.90;;;;;;5116664;28;20032;-79
2021/01/08 01:41:00;;;;;;;23.02;12.90;;;4.30;67.10;;;;;;5100258;28;20134;-77
2021/01/08 01:43:26;;;;;;;20.70;12.25;;;4.30;67.00;;;;;;5085999;28;20055;-75
2021/01/08 01:45:52;;;;;;;21.40;11.90;;;4.30;66.90;;;;;;5116198;28;20435;-77
2021/01/08 01:48:18;;;;;;;23.90;13.13;;;4.30;67.00;;;;;;5118590;28;20035;-78
2021/01/08 01:50:45;;;;;;;21.92;12.43;;;4.30;66.90;;;;;;5081210;28;20084;-77
2021/01/08 01:53:12;;;;;;;20.67;11.57;;;4.30;66.90;;;;;;5116424;28;20051;-76
2021/01/08 01:55:40;;;;;;;20.88;11.95;;;4.30;66.50;;;;;;5097735;28;20114;-76
2021/01/08 01:58:06;;;;;;;22.73;13.15;;;4.30;67.40;;;;;;5116422;28;20028;-76
2021/01/08 02:00:32;;;;;;;21.02;12.20;;;4.30;66.90;;;;;;5099587;28;20387;-78
2021/01/08 02:03:07;;;;;;;22.80;12.70;;;4.30;66.90;;;;;;5118223;28;20039;-76
2021/01/08 02:05:35;;;;;;;20.60;11.70;;;4.30;67.50;;;;;;5099602;28;20054;-80
2021/01/08 02:08:12;;;;;;;23.63;12.45;;;4.30;66.90;;;;;;5083393;28;20050;-76
2021/01/08 02:11:01;;;;;;;21.85;12.50;;;4.30;67.00;;;;;;5100055;28;20055;-77
2021/01/08 02:13:59;;;;;;;24.13;11.52;;;4.30;67.10;;;;;;5106571;28;20061;-78
2021/01/08 02:16:29;;;;;;;25.13;11.43;;;4.30;67.00;;;;;;5122353;28;20040;-77
2021/01/08 02:18:58;;;;;;;21.73;11.93;;;4.30;67.10;;;;;;5090230;28;20081;-79
2021/01/08 02:21:31;;;;;;;22.88;11.70;;;4.30;67.40;;;;;;5123213;28;20035;-78
2021/01/08 02:24:08;;;;;;;22.02;11.55;;;4.30;67.30;;;;;;5122403;28;20391;-78
2021/01/08 02:26:34;;;;;;;20.95;12.07;;;4.30;67.30;;;;;;5118677;28;20503;-80
2021/01/08 02:29:01;;;;;;;20.83;12.38;;;4.30;67.20;;;;;;5116897;28;20100;-78
2021/01/08 02:31:27;;;;;;;19.55;11.43;;;4.30;67.30;;;;;;5099163;28;20495;-78
2021/01/08 02:33:57;;;;;;;22.35;12.45;;;4.30;67.30;;;;;;5101768;28;20577;-77
2021/01/08 02:36:25;;;;;;;21.67;11.95;;;4.30;67.20;;;;;;5121053;28;20504;-77
2021/01/08 02:38:53;;;;;;;33.08;13.60;;;4.30;67.30;;;;;;5122225;28;20031;-76
2021/01/08 02:41:21;;;;;;;20.95;11.55;;;4.30;67.40;;;;;;5102357;28;20527;-76
2021/01/08 02:43:48;;;;;;;23.30;12.80;;;4.30;67.50;;;;;;5119564;28;20487;-75
2021/01/08 02:46:15;;;;;;;21.92;12.35;;;4.30;67.40;;;;;;5102667;28;20040;-77
2021/01/08 02:48:43;;;;;;;22.10;12.02;;;4.30;67.40;;;;;;5123142;28;20510;-76
2021/01/08 02:51:10;;;;;;;20.55;12.38;;;4.30;67.50;;;;;;5101151;28;20399;-77
2021/01/08 02:53:38;;;;;;;19.63;12.57;;;4.30;67.50;;;;;;5117329;28;20059;-80
2021/01/08 02:56:10;;;;;;;20.83;12.00;;;4.30;67.30;;;;;;5118064;28;20518;-78
2021/01/08 02:58:37;;;;;;;20.63;12.07;;;4.30;67.40;;;;;;5120501;28;20043;-77
2021/01/08 03:01:06;;;;;;;20.60;11.73;;;4.30;67.40;;;;;;5119518;28;20040;-76
2021/01/08 03:03:32;;;;;;;22.88;11.85;;;4.30;67.50;;;;;;5118532;28;20096;-76
2021/01/08 03:06:02;;;;;;;25.92;13.13;;;4.30;67.50;;;;;;5099987;28;20092;-76
2021/01/08 03:08:31;;;;;;;20.55;12.32;;;4.30;67.40;;;;;;5098833;28;20038;-77
2021/01/08 03:11:00;;;;;;;22.55;13.27;;;4.30;67.60;;;;;;5099220;28;20134;-75
2021/01/08 03:13:30;;;;;;;23.83;13.13;;;4.30;67.50;;;;;;5097387;28;20058;-77
2021/01/08 03:15:56;;;;;;;21.02;11.77;;;4.30;67.40;;;;;;5115829;28;20032;-76
2021/01/08 03:18:23;;;;;;;20.95;11.77;;;4.30;67.50;;;;;;5115260;28;20161;-77
2021/01/08 03:20:50;;;;;;;23.13;13.48;;;4.30;67.50;;;;;;5115345;28;20031;-76
2021/01/08 03:23:16;;;;;;;20.38;12.02;;;4.30;67.50;;;;;;5115320;28;20408;-78
2021/01/08 03:25:42;;;;;;;23.50;12.43;;;4.30;67.50;;;;;;5115108;28;20060;-76
2021/01/08 03:28:07;;;;;;;26.38;12.95;;;4.30;67.60;;;;;;5115240;28;20032;-78
2021/01/08 03:30:33;;;;;;;19.92;12.10;;;4.30;67.60;;;;;;5097449;28;20434;-79
2021/01/08 03:32:59;;;;;;;22.58;13.07;;;4.30;67.70;;;;;;5115299;28;20077;-78
2021/01/08 03:35:25;;;;;;;22.10;12.40;;;4.30;67.70;;;;;;5116013;28;20035;-77
2021/01/08 03:37:51;;;;;;;23.88;13.52;;;4.30;67.70;;;;;;5115461;28;20402;-76
2021/01/08 03:40:17;;;;;;;22.77;13.63;;;4.30;67.60;;;;;;5115799;28;20032;-76
2021/01/08 03:42:43;;;;;;;22.13;12.90;;;4.30;67.70;;;;;;5116829;28;20078;-79
2021/01/08 03:45:09;;;;;;;19.80;12.20;;;4.30;67.80;;;;;;5116970;28;20035;-77
2021/01/08 03:47:35;;;;;;;22.83;12.90;;;4.30;67.80;;;;;;5096857;28;20088;-78
2021/01/08 03:50:02;;;;;;;22.38;12.15;;;4.30;67.80;;;;;;5115719;28;20134;-77
2021/01/08 03:52:29;;;;;;;21.63;12.45;;;4.30;67.90;;;;;;5098948;28;20044;-78
2021/01/08 03:54:55;;;;;;;23.55;12.85;;;4.30;67.80;;;;;;5097104;28;20038;-76
2021/01/08 03:57:21;;;;;;;22.13;12.10;;;4.30;67.90;;;;;;5114832;28;20027;-78
2021/01/08 03:59:47;;;;;;;21.58;11.98;;;4.30;67.90;;;;;;5096792;28;20548;-77
2021/01/08 04:02:13;;;;;;;21.55;12.13;;;4.30;68.00;;;;;;5097708;28;20031;-77
2021/01/08 04:04:39;;;;;;;21.33;13.18;;;4.30;68.00;;;;;;5117150;28;20518;-77
2021/01/08 04:07:05;;;;;;;20.60;13.00;;;4.30;68.00;;;;;;5116529;28;20047;-77
2021/01/08 04:09:31;;;;;;;21.48;12.15;;;4.30;67.90;;;;;;5098089;28;20490;-77
2021/01/08 04:11:58;;;;;;;20.38;11.90;;;4.30;68.00;;;;;;5096081;28;20134;-77
2021/01/08 04:14:24;;;;;;;20.67;12.13;;;4.30;67.80;;;;;;5096407;28;20071;-76
2021/01/08 04:16:50;;;;;;;18.48;11.15;;;4.30;67.90;;;;;;5095568;28;20052;-76
2021/01/08 04:19:16;;;;;;;21.23;12.30;;;4.30;67.90;;;;;;5114284;28;20081;-75
2021/01/08 04:21:45;;;;;;;18.00;10.77;;;4.30;68.00;;;;;;5079211;28;20077;-77
2021/01/08 04:24:12;;;;;;;19.75;11.90;;;4.30;67.90;;;;;;5096098;28;20036;-74
2021/01/08 04:26:39;;;;;;;20.83;11.90;;;4.30;67.90;;;;;;5114271;28;20662;-75
2021/01/08 04:29:06;;;;;;;22.48;11.95;;;4.30;67.90;;;;;;5079299;28;20032;-77
2021/01/08 04:31:33;;;;;;;22.08;11.88;;;4.30;68.10;;;;;;5097002;28;20475;-80
2021/01/08 04:34:02;;;;;;;20.77;11.88;;;4.30;68.00;;;;;;5116298;28;20037;-80
2021/01/08 04:36:28;;;;;;;16.55;9.77;;;4.30;68.10;;;;;;5097920;28;20043;-81
2021/01/08 04:38:55;;;;;;;19.63;11.13;;;4.30;68.00;;;;;;5116092;28;20039;-80
2021/01/08 04:41:28;;;;;;;19.98;10.93;;;4.30;68.20;;;;;;5096382;28;20039;-83
2021/01/08 04:43:57;;;;;;;17.90;11.32;;;4.30;68.10;;;;;;5079828;28;20461;-79
2021/01/08 04:46:32;;;;;;;22.55;12.07;;;4.30;68.20;;;;;;5079848;28;20046;-78
2021/01/08 04:49:05;;;;;;;20.15;10.93;;;4.30;68.20;;;;;;5080799;28;20052;-80
2021/01/08 04:51:37;;;;;;;23.33;12.88;;;4.30;68.30;;;;;;5094059;28;20048;-83
2021/01/08 04:54:05;;;;;;;22.83;11.93;;;4.30;68.10;;;;;;5080532;28;20055;-82
2021/01/08 04:57:06;;;;;;;24.00;11.70;;;4.30;68.20;;;;;;5079940;28;20058;-81
2021/01/08 04:59:40;;;;;;;20.65;11.45;;;4.30;68.10;;;;;;5082605;28;20494;-78
2021/01/08 05:02:08;;;;;;;21.80;11.77;;;4.30;68.20;;;;;;5096147;28;20036;-77
2021/01/08 05:04:35;;;;;;;19.75;11.90;;;4.30;68.10;;;;;;5062991;28;20053;-80
2021/01/08 05:07:01;;;;;;;22.23;12.05;;;4.30;68.20;;;;;;5080503;28;20512;-78
2021/01/08 05:09:27;;;;;;;20.48;11.80;;;4.30;68.10;;;;;;5115814;28;20028;-78
2021/01/08 05:11:56;;;;;;;20.30;11.43;;;4.30;68.30;;;;;;5097254;28;20080;-77
2021/01/08 05:14:25;;;;;;;19.70;11.05;;;4.30;68.40;;;;;;5095855;28;20054;-75
2021/01/08 05:16:51;;;;;;;21.08;11.55;;;4.30;68.50;;;;;;5113908;28;20520;-76
2021/01/08 05:19:28;;;;;;;22.73;12.02;;;4.30;68.40;;;;;;5096253;28;20047;-76
2021/01/08 05:21:55;;;;;;;18.58;11.75;;;4.30;68.30;;;;;;5080037;28;20043;-75
2021/01/08 05:24:23;;;;;;;18.42;11.02;;;4.30;68.20;;;;;;5061681;28;20058;-76
2021/01/08 05:26:52;;;;;;;22.58;12.05;;;4.30;68.30;;;;;;5075116;28;20051;-77
2021/01/08 05:29:19;;;;;;;19.20;11.07;;;4.30;68.30;;;;;;5078690;28;20415;-77
2021/01/08 05:31:48;;;;;;;22.17;11.95;;;4.30;68.30;;;;;;5078389;28;20032;-76
2021/01/08 05:34:28;;;;;;;22.77;11.75;;;4.30;68.20;;;;;;5095138;28;20045;-78
2021/01/08 05:37:01;;;;;;;20.00;11.63;;;4.30;68.20;;;;;;5093637;28;20067;-79
2021/01/08 05:39:28;;;;;;;21.77;12.30;;;4.30;68.20;;;;;;5077898;28;20084;-77
2021/01/08 05:41:59;;;;;;;20.85;11.80;;;4.30;68.30;;;;;;5084639;28;20028;-80
2021/01/08 05:44:26;;;;;;;24.90;11.73;;;4.30;68.40;;;;;;5073375;28;20392;-78
2021/01/08 05:47:07;;;;;;;19.60;11.13;;;4.30;68.40;;;;;;5086829;28;20119;-82
2021/01/08 05:49:37;;;;;;;21.98;12.18;;;4.30;68.30;;;;;;5113722;28;20036;-80
2021/01/08 05:52:04;;;;;;;21.85;12.48;;;4.30;69.00;;;;;;5097570;28;20051;-79
2021/01/08 05:54:32;;;;;;;23.27;11.93;;;4.30;68.30;;;;;;5063782;28;20058;-80
2021/01/08 05:57:00;;;;;;;19.83;11.18;;;4.30;68.40;;;;;;5097131;28;20043;-78
2021/01/08 05:59:26;;;;;;;20.60;11.93;;;4.30;68.30;;;;;;5046515;28;20031;-80
2021/01/08 06:01:57;;;;;;;21.02;12.73;;;4.30;68.40;;;;;;5079753;28;20032;-78
2021/01/08 06:04:39;;;;;;;20.08;11.57;;;4.30;68.40;;;;;;5062157;28;20028;-79
2021/01/08 06:07:16;;;;;;;20.17;11.88;;;4.30;68.40;;;;;;5062168;28;20055;-79
2021/01/08 06:09:51;;;;;;;18.92;10.98;;;4.30;68.50;;;;;;5078845;28;20040;-79
2021/01/08 06:12:20;;;;;;;21.30;11.50;;;4.30;68.50;;;;;;5079579;28;20059;-80
2021/01/08 06:15:04;;;;;;;22.35;13.10;;;4.30;68.50;;;;;;5063460;28;20040;-79
2021/01/08 06:17:31;;;;;;;26.02;13.02;;;4.30;68.60;;;;;;5063042;28;20036;-77
2021/01/08 06:20:02;;;;;;;21.77;11.48;;;4.30;68.60;;;;;;5081493;28;20495;-82
2021/01/08 06:22:35;;;;;;;20.15;11.75;;;4.30;69.30;;;;;;5099794;28;20476;-73
2021/01/08 06:25:01;;;;;;;21.30;11.52;;;4.30;68.70;;;;;;5096751;28;20420;-70
2021/01/08 06:27:32;;;;;;;23.60;12.10;;;4.30;68.50;;;;;;5096837;28;20054;-73
2021/01/08 06:30:04;;;;;;;23.08;12.85;;;4.30;68.60;;;;;;5062050;28;20047;-74
2021/01/08 06:32:31;;;;;;;22.13;12.38;;;4.30;68.70;;;;;;5061785;28;20113;-74
2021/01/08 06:35:08;;;;;;;19.48;11.73;;;4.30;68.70;;;;;;5061425;28;20059;-74
2021/01/08 06:37:40;;;;;;;19.90;11.88;;;4.30;68.70;;;;;;5096374;28;20036;-75
2021/01/08 06:40:11;;;;;;;22.25;12.65;;;4.30;68.70;;;;;;5077901;28;20174;-75
2021/01/08 06:42:47;;;;;;;19.83;11.23;;;4.30;68.60;;;;;;5096273;28;20020;-73
2021/01/08 06:45:16;;;;;;;19.45;11.38;;;4.30;68.60;;;;;;5078416;28;20079;-76
2021/01/08 06:47:47;;;;;;;20.92;12.27;;;4.30;68.50;;;;;;5061818;28;20515;-74
2021/01/08 06:50:17;;;;;;;22.60;11.88;;;4.30;68.70;;;;;;5061733;28;20494;-74
2021/01/08 06:52:49;;;;;;;20.60;11.63;;;4.40;68.70;;;;;;5096191;28;20454;-74
2021/01/08 06:55:19;;;;;;;21.00;11.82;;;4.30;68.70;;;;;;5095944;28;20081;-73
2021/01/08 06:57:53;;;;;;;20.40;11.95;;;4.30;68.50;;;;;;5077678;28;20495;-73
2021/01/08 07:00:29;;;;;;;20.38;12.65;;;4.40;68.90;;;;;;5062259;28;20036;-74
2021/01/08 07:02:59;;;;;;;19.48;11.93;;;4.40;68.80;;;;;;5095677;28;20077;-74
2021/01/08 07:05:25;;;;;;;23.95;11.77;;;4.40;68.80;;;;;;5078289;28;20035;-74
2021/01/08 07:07:54;;;;;;;22.27;13.02;;;4.40;68.60;;;;;;5095766;28;20055;-74
2021/01/08 07:10:20;;;;;;;20.80;12.52;;;4.40;68.80;;;;;;5060986;28;20487;-76
2021/01/08 07:12:51;;;;;;;21.30;12.68;;;4.40;68.90;;;;;;5078497;28;20051;-76
2021/01/08 07:15:20;;;;;;;19.80;11.52;;;4.40;68.90;;;;;;5077314;28;20028;-74
2021/01/08 07:17:54;;;;;;;19.35;11.43;;;4.40;68.60;;;;;;5059975;28;20126;-80
2021/01/08 07:20:20;;;;;;;21.92;11.80;;;4.40;68.80;;;;;;5060581;28;20123;-80
2021/01/08 07:22:51;;;;;;;20.98;11.73;;;4.40;68.90;;;;;;5095231;28;20127;-71
2021/01/08 07:25:21;;;;;;;18.05;11.38;;;4.50;68.80;;;;;;5094661;28;20583;-70
2021/01/08 07:27:49;;;;;;;20.08;11.18;;;4.50;69.20;;;;;;5060326;28;20036;-70
2021/01/08 07:30:15;;;;;;;18.35;11.88;;;4.50;70.20;;;;;;5076685;28;20028;-74
2021/01/08 07:32:44;;;;;;;18.73;11.35;;;4.60;72.30;;;;;;5076680;28;20085;-70
2021/01/08 07:35:25;;;;;;;19.05;11.45;;;4.70;74.00;;;;;;5094491;28;20503;-70
2021/01/08 07:38:14;;;;;;;14.73;9.38;;;4.70;75.80;;;;;;5094929;28;20032;-69
2021/01/08 07:40:49;;;;;;;19.75;11.93;;;4.80;76.80;;;;;;5077666;28;20040;-69
2021/01/08 07:43:16;;;;;;;21.63;11.90;;;4.90;77.00;;;;;;5094581;28;20032;-71
2021/01/08 07:45:55;;;;;;;19.27;11.32;;;4.90;77.30;;;;;;5076690;28;20048;-69
2021/01/08 07:48:22;;;;;;;16.02;10.30;;;5.00;77.60;;;;;;5076471;28;20097;-68
2021/01/08 07:50:53;;;;;;;19.02;11.43;;;5.00;77.60;;;;;;5094449;28;20048;-69
2021/01/08 07:53:41;;;;;;;18.98;11.32;;;5.10;77.60;;;;;;5076639;28;20040;-69
2021/01/08 07:56:11;;;;;;;18.40;10.55;;;5.10;77.60;;;;;;5076459;28;20069;-69
2021/01/08 07:58:37;;;;;;;18.92;10.90;;;5.10;77.80;;;;;;5076253;28;20067;-70
2021/01/08 08:01:04;;;;;;;20.23;12.27;;;5.20;77.70;;;;;;5094123;28;20075;-70
2021/01/08 08:03:30;;;;;;;19.95;11.32;;;5.20;77.50;;;;;;5076805;28;20369;-70
2021/01/08 08:05:58;;;;;;;18.77;10.70;;;5.20;77.40;;;;;;5076278;28;20416;-69
2021/01/08 08:08:25;;;;;;;15.85;10.40;;;5.20;77.50;;;;;;5093797;28;20028;-70
2021/01/08 08:10:51;;;;;;;19.88;11.75;;;5.30;77.60;;;;;;5093606;28;20036;-70
2021/01/08 08:13:27;;;;;;;17.10;10.57;;;5.30;77.30;;;;;;5094077;28;20043;-71
2021/01/08 08:15:53;;;;;;;19.38;10.88;;;5.40;77.30;;;;;;5059200;28;20035;-71
2021/01/08 08:18:19;;;;;;;18.58;10.38;;;5.40;77.40;;;;;;5094144;28;20527;-77
2021/01/08 08:20:44;;;;;;;19.88;11.55;;;5.40;77.20;;;;;;5075646;28;20126;-75
2021/01/08 08:23:15;;;;;;;20.52;11.30;;;5.40;76.60;;;;;;5076060;28;20139;-75
2021/01/08 08:25:41;;;;;;;18.77;11.68;;;5.40;75.60;;;;;;5093501;28;20083;-76
2021/01/08 08:28:08;;;;;;;22.73;11.43;;;5.40;74.80;;;;;;5075885;28;20040;-73
2021/01/08 08:30:34;;;;;;;20.45;11.60;;;5.30;74.00;;;;;;5093697;28;20063;-77
2021/01/08 08:33:03;;;;;;;18.63;11.45;;;5.30;73.40;;;;;;5075917;28;20040;-73
2021/01/08 08:35:34;;;;;;;20.55;11.95;;;5.20;73.10;;;;;;5093337;28;20462;-74
2021/01/08 08:38:00;;;;;;;18.92;11.02;;;5.20;72.80;;;;;;5092443;28;20036;-74
2021/01/08 08:40:28;;;;;;;20.50;12.25;;;5.20;72.50;;;;;;5093252;28;20084;-71
2021/01/08 08:42:58;;;;;;;20.40;11.68;;;5.10;72.30;;;;;;5058538;28;20031;-73
2021/01/08 08:45:27;;;;;;;20.27;11.40;;;5.10;72.20;;;;;;5058677;28;20046;-72
2021/01/08 08:47:55;;;;;;;20.02;11.60;;;5.10;72.20;;;;;;5092990;28;20400;-70
2021/01/08 08:50:22;;;;;;;19.25;11.70;;;5.10;72.00;;;;;;5093511;28;20039;-72
2021/01/08 08:52:49;;;;;;;18.10;10.60;;;5.10;71.90;;;;;;5094144;28;20079;-72
2021/01/08 08:55:25;;;;;;;19.50;10.98;;;5.00;71.70;;;;;;5093283;28;20502;-72
2021/01/08 08:58:11;;;;;;;20.17;11.88;;;5.00;71.80;;;;;;5092957;28;20040;-71
2021/01/08 09:00:39;;;;;;;18.45;11.82;;;5.00;71.60;;;;;;5092874;28;20070;-71
2021/01/08 09:03:24;;;;;;;24.05;11.75;;;5.00;71.60;;;;;;5058249;28;20051;-70
2021/01/08 09:05:53;;;;;;;21.65;11.85;;;5.00;71.40;;;;;;5108466;28;20122;-70
2021/01/08 09:08:32;;;;;;;17.77;11.57;;;5.00;71.60;;;;;;5091955;28;20036;-70
2021/01/08 09:11:33;;;;;;;20.88;11.60;;;5.00;71.50;;;;;;5074707;28;20032;-71
2021/01/08 09:14:04;;;;;;;19.02;12.35;;;5.00;71.50;;;;;;5075243;28;20047;-71
2021/01/08 09:17:02;;;;;;;19.75;12.18;;;4.90;71.50;;;;;;5074629;28;20054;-73
2021/01/08 09:19:32;;;;;;;21.25;11.63;;;5.00;71.50;;;;;;5057260;28;20036;-71
2021/01/08 09:21:58;;;;;;;18.75;11.23;;;5.00;72.10;;;;;;5075243;28;20043;-74
2021/01/08 09:24:34;;;;;;;18.83;11.07;;;5.00;71.60;;;;;;5074699;28;20054;-71
2021/01/08 09:27:02;;;;;;;16.25;10.20;;;5.00;71.80;;;;;;5058087;28;20043;-74
2021/01/08 09:29:33;;;;;;;14.95;9.98;;;5.10;71.90;;;;;;5074777;28;20036;-73
2021/01/08 09:32:00;;;;;;;17.73;10.82;;;5.10;71.70;;;;;;5092608;28;20522;-73
2021/01/08 09:34:27;;;;;;;16.67;10.10;;;5.20;71.70;;;;;;5075397;28;20408;-72
2021/01/08 09:36:55;;;;;;;18.33;10.00;;;5.20;71.50;;;;;;5074706;28;20063;-71
2021/01/08 09:39:22;;;;;;;19.15;11.65;;;5.20;71.50;;;;;;5057940;28;20059;-72
2021/01/08 09:42:01;;;;;;;18.65;11.30;;;5.30;71.30;;;;;;5092513;28;20126;-75
2021/01/08 09:44:35;;;;;;;19.98;11.55;;;5.30;71.20;;;;;;5091310;28;20024;-73
2021/01/08 09:47:10;;;;;;;18.73;10.63;;;5.30;71.10;;;;;;5092391;28;20036;-72
2021/01/08 09:49:43;;;;;;;17.67;10.33;;;5.30;70.90;;;;;;5074493;28;20496;-74
2021/01/08 09:52:11;;;;;;;18.35;11.10;;;5.30;70.60;;;;;;5057811;28;20032;-72
2021/01/08 09:54:48;;;;;;;19.98;11.95;;;5.30;70.60;;;;;;5092310;28;20071;-74
2021/01/08 09:57:53;;;;;;;21.48;12.02;;;5.30;70.60;;;;;;5074693;28;20052;-71
2021/01/08 10:00:30;;;;;;;18.88;11.65;;;5.30;70.50;;;;;;5051664;28;20055;-71
2021/01/08 10:02:56;;;;;;;18.20;11.13;;;5.30;70.30;;;;;;5057819;28;20024;-71
2021/01/08 10:05:22;;;;;;;20.90;10.90;;;5.30;70.50;;;;;;5092457;28;20067;-73
2021/01/08 10:07:49;;;;;;;17.27;10.40;;;5.30;70.50;;;;;;5074116;28;20208;-71
2021/01/08 10:10:27;;;;;;;17.70;10.90;;;5.20;70.30;;;;;;5074736;28;20040;-72
2021/01/08 10:12:56;;;;;;;18.30;11.38;;;5.30;70.20;;;;;;5074284;28;20081;-71
2021/01/08 10:15:43;;;;;;;19.15;10.88;;;5.30;70.30;;;;;;5057671;28;20029;-72
2021/01/08 10:18:16;;;;;;;20.67;10.73;;;5.30;70.30;;;;;;5074218;28;20060;-73
2021/01/08 10:20:51;;;;;;;18.77;12.15;;;5.20;70.30;;;;;;5092277;28;20432;-72
2021/01/08 10:23:23;;;;;;;19.90;11.07;;;5.20;70.10;;;;;;5057746;28;20392;-71
2021/01/08 10:25:51;;;;;;;19.48;11.70;;;5.30;70.20;;;;;;5057463;28;20189;-73
2021/01/08 10:28:19;;;;;;;18.02;9.80;;;5.20;70.30;;;;;;5057280;28;20084;-75
2021/01/08 10:30:48;;;;;;;19.60;11.02;;;5.20;70.20;;;;;;5074105;28;20036;-72
2021/01/08 10:33:15;;;;;;;19.45;11.80;;;5.30;70.10;;;;;;5076562;28;20028;-72
2021/01/08 10:35:53;;;;;;;19.70;11.48;;;5.20;70.20;;;;;;5060886;28;20040;-71
2021/01/08 10:38:20;;;;;;;17.45;11.20;;;5.20;70.30;;;;;;5061343;28;20047;-76
2021/01/08 10:40:46;;;;;;;16.55;10.50;;;5.20;70.30;;;;;;5096028;28;20495;-74
2021/01/08 10:43:12;;;;;;;18.75;10.68;;;5.20;70.10;;;;;;5060675;28;20106;-73
2021/01/08 10:45:39;;;;;;;18.42;11.70;;;5.20;70.20;;;;;;5095542;28;20499;-71
2021/01/08 10:48:05;;;;;;;18.85;11.38;;;5.20;70.30;;;;;;5077396;28;20044;-74
2021/01/08 10:50:32;;;;;;;19.50;11.00;;;5.20;70.30;;;;;;5061288;28;20035;-72
2021/01/08 10:52:59;;;;;;;19.38;11.20;;;5.10;70.20;;;;;;5095769;28;20123;-73
2021/01/08 10:55:25;;;;;;;18.17;10.82;;;5.20;70.20;;;;;;5095604;28;20036;-72
2021/01/08 10:57:54;;;;;;;19.33;11.25;;;5.20;70.50;;;;;;5077702;28;20048;-73
2021/01/08 11:00:21;;;;;;;18.90;11.20;;;5.20;70.60;;;;;;5078175;28;20096;-73
2021/01/08 11:02:47;;;;;;;18.13;10.63;;;5.10;70.30;;;;;;5097113;28;20039;-71
2021/01/08 11:05:13;;;;;;;18.98;10.85;;;5.10;70.30;;;;;;5060242;28;20036;-72
2021/01/08 11:07:39;;;;;;;18.58;11.60;;;5.20;70.40;;;;;;5060069;28;20131;-71
2021/01/08 11:10:07;;;;;;;18.02;11.40;;;5.10;70.30;;;;;;5076873;28;20127;-72
2021/01/08 11:12:34;;;;;;;18.10;10.05;;;5.10;70.30;;;;;;5076936;28;20080;-74
2021/01/08 11:15:00;;;;;;;18.40;11.07;;;5.10;70.20;;;;;;5077383;28;20036;-74
2021/01/08 11:17:27;;;;;;;16.48;10.18;;;5.10;70.30;;;;;;5060528;28;20039;-73
2021/01/08 11:19:53;;;;;;;15.75;9.75;;;5.10;70.30;;;;;;5076973;28;20035;-73
2021/01/08 11:22:19;;;;;;;18.17;9.98;;;5.10;70.40;;;;;;5093458;28;20051;-79
2021/01/08 11:24:45;;;;;;;19.95;11.73;;;5.10;70.30;;;;;;5098598;28;20391;-83
2021/01/08 11:27:11;;;;;;;15.40;9.23;;;5.10;70.50;;;;;;5078264;28;20036;-80
2021/01/08 11:29:37;;;;;;;16.95;9.93;;;5.10;70.50;;;;;;5061333;28;20520;-81
2021/01/08 11:32:08;;;;;;;16.25;9.63;;;5.10;70.50;;;;;;5111257;28;20028;-80
2021/01/08 11:34:34;;;;;;;16.45;10.18;;;5.10;70.30;;;;;;5095428;28;20067;-80
2021/01/08 11:37:00;;;;;;;15.50;10.23;;;5.10;70.50;;;;;;5096356;28;20036;-79
2021/01/08 11:39:26;;;;;;;14.90;8.75;;;5.10;70.70;;;;;;5095279;28;20024;-79
2021/01/08 11:41:56;;;;;;;18.73;10.10;;;5.10;70.70;;;;;;5080395;28;20043;-80
2021/01/08 11:44:23;;;;;;;16.88;10.13;;;5.10;70.50;;;;;;5079405;28;20027;-81
2021/01/08 11:46:50;;;;;;;18.17;10.38;;;5.10;70.60;;;;;;5095328;28;20036;-80
2021/01/08 11:49:17;;;;;;;16.08;9.82;;;5.10;70.80;;;;;;5076980;28;20040;-78
2021/01/08 11:51:44;;;;;;;17.98;10.10;;;5.10;70.80;;;;;;5059884;28;20032;-78
2021/01/08 11:54:10;;;;;;;16.50;9.77;;;5.10;70.70;;;;;;5094855;28;20054;-84
2021/01/08 11:56:36;;;;;;;14.88;9.55;;;5.10;70.70;;;;;;5077546;28;20081;-81
2021/01/08 11:59:03;;;;;;;14.98;9.93;;;5.10;70.80;;;;;;5061188;28;20495;-79
2021/01/08 12:01:29;;;;;;;14.50;9.15;;;5.10;70.90;;;;;;5076970;28;20032;-79
2021/01/08 12:03:56;;;;;;;14.13;8.93;;;5.10;70.70;;;;;;5095085;28;20063;-81
2021/01/08 12:06:33;;;;;;;17.05;9.52;;;5.10;70.60;;;;;;5076452;28;20116;-79
2021/01/08 12:09:06;;;;;;;15.90;10.23;;;5.10;70.80;;;;;;5063507;28;20149;-81
2021/01/08 12:11:33;;;;;;;16.10;9.65;;;5.10;70.90;;;;;;5076731;28;20122;-79
2021/01/08 12:13:59;;;;;;;15.73;9.45;;;5.00;70.80;;;;;;5094472;28;20032;-81
2021/01/08 12:16:32;;;;;;;16.98;9.80;;;5.10;70.70;;;;;;5077098;28;20043;-82
2021/01/08 12:18:59;;;;;;;15.57;9.23;;;5.10;70.80;;;;;;5060881;28;20059;-82
2021/01/08 12:21:28;;;;;;;17.70;9.70;;;5.10;71.00;;;;;;5077133;28;20039;-82
2021/01/08 12:23:54;;;;;;;14.45;8.90;;;5.00;70.80;;;;;;5076447;28;20031;-80
2021/01/08 12:26:21;;;;;;;16.15;9.85;;;5.00;70.50;;;;;;5066596;28;20052;-82
2021/01/08 12:28:48;;;;;;;17.13;9.68;;;5.00;70.80;;;;;;5077965;28;20036;-85
2021/01/08 12:31:15;;;;;;;16.73;9.25;;;5.10;71.00;;;;;;5076769;28;20036;-80
2021/01/08 12:33:41;;;;;;;14.50;9.40;;;5.00;70.80;;;;;;5095083;28;20032;-80
2021/01/08 12:36:09;;;;;;;16.92;10.23;;;5.00;70.60;;;;;;5094457;28;20440;-79
2021/01/08 12:38:35;;;;;;;16.02;9.52;;;5.00;70.70;;;;;;5093980;28;20046;-80
2021/01/08 12:41:02;;;;;;;17.17;9.77;;;5.00;70.90;;;;;;5075443;28;20040;-79
2021/01/08 12:43:28;;;;;;;15.50;9.95;;;5.00;71.00;;;;;;5099423;28;20055;-80
2021/01/08 12:45:55;;;;;;;16.33;9.98;;;5.00;70.70;;;;;;5075412;28;20055;-80
2021/01/08 12:48:21;;;;;;;18.58;11.00;;;5.00;70.80;;;;;;5075808;28;20073;-78